createdAt,value
2018-07-10T00:00:30.851Z,49.11
2018-07-10T00:06:20.984Z,48.78
2018-07-10T00:10:26.519Z,50.58
2018-07-10T00:12:58.751Z,50.33
2018-07-10T00:15:30.974Z,51.39
2018-07-10T00:18:03.184Z,50.66
2018-07-10T00:20:35.443Z,51.01
2018-07-10T00:23:07.553Z,50.59
2018-07-10T00:25:39.744Z,50.54
2018-07-10T00:28:11.884Z,51.39
2018-07-10T00:30:44.074Z,51.46
2018-07-10T00:33:16.250Z,51.27
2018-07-10T00:35:48.480Z,52.07
2018-07-10T00:38:32.149Z,52.03
2018-07-10T00:41:04.419Z,51.81
2018-07-10T00:43:36.637Z,52.67
2018-07-10T00:46:08.865Z,52.86
2018-07-10T00:48:41.048Z,53.07
2018-07-10T00:51:13.254Z,52.66
2018-07-10T00:53:45.427Z,52.80
2018-07-10T00:56:17.617Z,52.93
2018-07-10T00:58:50.909Z,53.40
2018-07-10T01:01:23.859Z,54.27
2018-07-10T01:03:56.041Z,54.30
2018-07-10T01:06:28.208Z,54.50
2018-07-10T01:09:00.404Z,54.96
2018-07-10T01:11:32.679Z,54.52
2018-07-10T01:14:05.050Z,54.31
2018-07-10T01:16:38.329Z,53.94
2018-07-10T01:19:12.037Z,54.61
2018-07-10T01:21:44.921Z,54.49
2018-07-10T01:24:17.368Z,54.18
2018-07-10T01:26:49.884Z,54.97
2018-07-10T01:29:27.593Z,55.83
2018-07-10T01:31:59.833Z,54.92
2018-07-10T01:34:32.002Z,54.73
2018-07-10T01:37:04.255Z,55.30
2018-07-10T01:39:36.446Z,56.20
2018-07-10T01:42:08.629Z,56.00
2018-07-10T01:44:40.883Z,56.93
2018-07-10T01:47:13.036Z,57.20
2018-07-10T01:49:45.182Z,56.86
2018-07-10T01:52:17.539Z,56.96
2018-07-10T01:54:49.745Z,57.82
2018-07-10T01:57:22.970Z,57.53
2018-07-10T01:59:55.502Z,59.05
2018-07-10T02:02:27.723Z,58.77
2018-07-10T02:05:00.485Z,58.63
2018-07-10T02:07:32.568Z,58.65
2018-07-10T02:10:04.670Z,58.32
2018-07-10T02:12:36.853Z,58.66
2018-07-10T02:15:09.011Z,58.47
2018-07-10T02:17:41.227Z,58.55
2018-07-10T02:20:13.473Z,59.72
2018-07-10T02:22:46.463Z,59.96
2018-07-10T02:25:18.920Z,60.43
2018-07-10T02:27:51.191Z,59.74
2018-07-10T02:30:23.358Z,60.64
2018-07-10T02:32:55.506Z,59.97
2018-07-10T02:35:27.635Z,60.26
2018-07-10T02:38:00.561Z,59.75
2018-07-10T02:40:33.570Z,60.33
2018-07-10T02:43:06.018Z,60.13
2018-07-10T02:45:38.213Z,60.50
2018-07-10T02:48:10.443Z,60.58
2018-07-10T02:50:42.944Z,61.25
2018-07-10T02:53:15.044Z,61.67
2018-07-10T02:55:47.257Z,61.26
2018-07-10T02:58:23.431Z,61.48
2018-07-10T03:00:55.756Z,62.41
2018-07-10T03:03:28.001Z,62.21
2018-07-10T03:06:01.341Z,62.26
2018-07-10T03:08:33.640Z,62.01
2018-07-10T03:11:06.453Z,61.82
2018-07-10T03:13:39.765Z,61.74
2018-07-10T03:16:12.292Z,61.98
2018-07-10T03:18:44.516Z,61.53
2018-07-10T03:21:16.702Z,61.97
2018-07-10T03:23:48.848Z,61.46
2018-07-10T03:26:20.994Z,61.34
2018-07-10T03:28:53.291Z,62.88
2018-07-10T03:31:25.530Z,61.35
2018-07-10T03:33:57.701Z,61.78
2018-07-10T03:36:29.973Z,62.29
2018-07-10T03:39:02.835Z,62.44
2018-07-10T03:41:35.057Z,62.74
2018-07-10T03:44:07.292Z,62.38
2018-07-10T03:46:40.175Z,62.68
2018-07-10T03:49:13.339Z,63.39
2018-07-10T03:51:46.590Z,62.56
2018-07-10T03:54:18.796Z,62.55
2018-07-10T03:56:50.970Z,62.39
2018-07-10T03:59:23.344Z,62.32
2018-07-10T04:01:55.493Z,63.30
2018-07-10T04:04:27.655Z,63.13
2018-07-10T04:06:59.846Z,63.22
2018-07-10T04:09:32.034Z,62.71
2018-07-10T04:12:04.518Z,63.20
2018-07-10T04:14:36.742Z,63.11
2018-07-10T04:17:09.763Z,62.46
2018-07-10T04:19:42.693Z,62.65
2018-07-10T04:22:16.250Z,62.04
2018-07-10T04:24:48.494Z,63.13
2018-07-10T04:27:27.022Z,62.00
2018-07-10T04:30:06.904Z,61.37
2018-07-10T04:32:40.155Z,60.93
2018-07-10T04:35:14.112Z,60.76
2018-07-10T04:37:48.587Z,60.55
2018-07-10T04:40:20.884Z,60.28
2018-07-10T04:42:58.279Z,60.22
2018-07-10T04:45:37.706Z,60.10
2018-07-10T04:48:14.759Z,60.84
2018-07-10T04:50:51.995Z,59.71
2018-07-10T04:53:34.654Z,59.39
2018-07-10T04:56:06.868Z,60.69
2018-07-10T04:58:40.116Z,60.56
2018-07-10T05:01:13.413Z,60.27
2018-07-10T05:03:45.642Z,60.50
2018-07-10T05:06:17.855Z,59.87
2018-07-10T05:08:50.007Z,59.72
2018-07-10T05:11:22.927Z,59.83
2018-07-10T05:13:55.156Z,59.64
2018-07-10T05:16:27.341Z,58.63
2018-07-10T05:19:00.256Z,59.70
2018-07-10T05:21:32.616Z,59.41
2018-07-10T05:24:04.958Z,60.10
2018-07-10T05:26:37.202Z,58.76
2018-07-10T05:29:09.428Z,58.93
2018-07-10T05:31:41.604Z,59.35
2018-07-10T05:34:13.912Z,58.34
2018-07-10T05:36:46.222Z,58.39
2018-07-10T05:39:18.424Z,58.95
2018-07-10T05:41:50.685Z,58.48
2018-07-10T05:44:22.877Z,58.85
2018-07-10T05:47:00.327Z,58.91
2018-07-10T05:49:35.683Z,57.88
2018-07-10T05:52:08.388Z,58.32
2018-07-10T05:54:42.130Z,57.24
2018-07-10T05:57:14.340Z,58.84
2018-07-10T05:59:46.516Z,58.46
2018-07-10T06:02:18.731Z,58.10
2018-07-10T06:04:52.112Z,57.51
2018-07-10T06:07:24.308Z,58.47
2018-07-10T06:09:56.541Z,57.31
2018-07-10T06:12:28.692Z,56.76
2018-07-10T06:15:05.518Z,56.65
2018-07-10T06:17:37.741Z,55.79
2018-07-10T06:20:09.871Z,55.46
2018-07-10T06:22:41.982Z,55.13
2018-07-10T06:25:14.193Z,54.91
2018-07-10T06:27:57.554Z,53.78
2018-07-10T06:30:29.668Z,53.63
2018-07-10T06:33:05.206Z,54.48
2018-07-10T06:35:43.138Z,54.84
2018-07-10T06:38:17.748Z,55.21
2018-07-10T06:40:50.763Z,54.57
2018-07-10T06:43:31.439Z,53.99
2018-07-10T06:46:03.641Z,53.51
2018-07-10T06:48:36.696Z,53.53
2018-07-10T06:51:12.877Z,53.40
2018-07-10T06:53:47.087Z,53.60
2018-07-10T06:56:25.516Z,52.54
2018-07-10T06:58:57.901Z,52.27
2018-07-10T07:01:30.017Z,51.09
2018-07-10T07:04:05.413Z,50.80
2018-07-10T07:06:37.547Z,50.30
2018-07-10T07:09:09.715Z,50.26
2018-07-10T07:11:41.875Z,51.44
2018-07-10T07:14:14.160Z,52.47
2018-07-10T07:16:46.424Z,51.47
2018-07-10T07:19:24.994Z,52.29
2018-07-10T07:21:57.266Z,51.10
2018-07-10T07:24:29.576Z,50.44
2018-07-10T07:27:01.814Z,50.57
2018-07-10T07:29:34.020Z,48.67
2018-07-10T07:32:06.190Z,49.69
2018-07-10T07:34:38.363Z,49.64
2018-07-10T07:37:10.644Z,49.53
2018-07-10T07:39:43.984Z,50.15
2018-07-10T07:42:17.203Z,50.41
2018-07-10T07:44:51.270Z,50.11
2018-07-10T07:47:29.943Z,48.27
2018-07-10T07:50:02.204Z,47.83
2018-07-10T07:52:34.420Z,46.62
2018-07-10T07:55:06.514Z,44.37
2018-07-10T07:57:38.710Z,41.68
2018-07-10T08:00:12.686Z,38.50
2018-07-10T08:02:44.905Z,37.40
2018-07-10T08:05:19.208Z,36.10
2018-07-10T08:07:51.431Z,34.63
2018-07-10T08:10:23.718Z,33.19
2018-07-10T08:12:55.921Z,32.54
2018-07-10T08:15:28.167Z,32.93
2018-07-10T08:18:00.365Z,37.31
2018-07-10T08:20:32.525Z,37.93
2018-07-10T08:23:04.985Z,41.19
2018-07-10T08:25:37.159Z,40.92
2018-07-10T08:28:09.760Z,38.89
2018-07-10T08:30:41.999Z,38.37
2018-07-10T08:33:14.235Z,37.30
2018-07-10T08:35:46.399Z,37.44
2018-07-10T08:38:44.215Z,38.59
2018-07-10T08:41:20.535Z,39.94
2018-07-10T08:43:53.069Z,36.63
2018-07-10T08:46:28.452Z,34.64
2018-07-10T08:49:00.721Z,35.49
2018-07-10T08:51:33.099Z,34.69
2018-07-10T08:54:05.312Z,33.02
2018-07-10T08:56:37.509Z,34.08
2018-07-10T08:59:10.934Z,35.10
2018-07-10T09:01:43.658Z,34.41
2018-07-10T09:04:16.716Z,34.86
2018-07-10T09:06:48.847Z,34.04
2018-07-10T09:09:21.044Z,32.96
2018-07-10T09:11:53.159Z,33.33
2018-07-10T09:14:25.306Z,33.42
2018-07-10T09:16:57.394Z,31.91
2018-07-10T09:19:30.362Z,31.67
2018-07-10T09:22:05.905Z,31.74
2018-07-10T09:24:50.118Z,30.37
2018-07-10T09:27:23.013Z,30.73
2018-07-10T09:29:55.115Z,31.31
2018-07-10T09:32:32.906Z,32.72
2018-07-10T09:35:05.488Z,31.97
2018-07-10T09:37:44.788Z,30.45
2018-07-10T09:40:18.015Z,30.49
2018-07-10T09:42:55.640Z,30.11
2018-07-10T09:45:31.507Z,30.06
2018-07-10T09:48:04.651Z,32.65
2018-07-10T09:50:37.229Z,35.86
2018-07-10T09:53:09.382Z,35.55
2018-07-10T09:55:41.525Z,35.00
2018-07-10T09:58:13.642Z,34.99
2018-07-10T10:00:51.297Z,35.42
2018-07-10T10:03:23.525Z,34.62
2018-07-10T10:05:56.108Z,33.82
2018-07-10T10:08:28.309Z,30.71
2018-07-10T10:11:00.687Z,33.07
2018-07-10T10:13:32.882Z,32.95
2018-07-10T10:16:05.042Z,31.73
2018-07-10T10:18:37.186Z,29.54
2018-07-10T10:21:09.410Z,30.08
2018-07-10T10:23:42.036Z,30.32
2018-07-10T10:26:14.231Z,31.71
2018-07-10T10:28:46.380Z,32.10
2018-07-10T10:31:18.553Z,31.80
2018-07-10T10:33:50.694Z,31.39
2018-07-10T10:36:22.897Z,30.89
2018-07-10T10:38:55.066Z,33.28
2018-07-10T10:41:27.794Z,32.53
2018-07-10T10:44:00.098Z,34.42
2018-07-10T10:46:32.586Z,35.40
2018-07-10T10:49:05.851Z,34.55
2018-07-10T10:51:38.076Z,34.74
2018-07-10T10:54:10.252Z,33.65
2018-07-10T10:56:42.407Z,36.13
2018-07-10T10:59:14.576Z,35.36
2018-07-10T11:01:46.733Z,36.28
2018-07-10T11:04:18.867Z,34.95
2018-07-10T11:06:51.260Z,34.89
2018-07-10T11:09:23.349Z,35.77
2018-07-10T11:11:56.143Z,39.06
2018-07-10T11:14:28.299Z,40.62
2018-07-10T11:17:01.262Z,45.26
2018-07-10T11:20:19.368Z,58.17
2018-07-10T11:23:03.617Z,82.58
2018-07-10T11:25:41.601Z,90.98
2018-07-10T11:28:14.178Z,93.17
2018-07-10T11:30:46.305Z,94.86
2018-07-10T11:33:18.420Z,94.46
2018-07-10T11:35:50.522Z,95.95
2018-07-10T11:38:22.666Z,94.98
2018-07-10T11:40:54.839Z,98.20
2018-07-10T11:43:27.049Z,97.80
2018-07-10T11:45:59.132Z,97.44
2018-07-10T11:48:31.196Z,96.59
2018-07-10T11:51:03.313Z,95.08
2018-07-10T11:53:36.437Z,96.19
2018-07-10T11:56:08.605Z,93.94
2018-07-10T11:58:40.812Z,92.51
2018-07-10T12:01:12.971Z,93.25
2018-07-10T12:03:45.460Z,93.04
2018-07-10T12:06:18.798Z,85.39
2018-07-10T12:08:58.163Z,85.67
2018-07-10T12:11:31.080Z,83.15
2018-07-10T12:14:03.348Z,81.34
2018-07-10T12:16:35.584Z,78.41
2018-07-10T12:19:07.757Z,72.78
2018-07-10T12:21:39.982Z,73.03
2018-07-10T12:24:12.173Z,64.07
2018-07-10T12:26:44.422Z,66.05
2018-07-10T12:29:16.600Z,66.03
2018-07-10T12:31:48.799Z,58.94
2018-07-10T12:34:20.956Z,61.79
2018-07-10T12:36:53.384Z,63.21
2018-07-10T12:39:25.549Z,59.56
2018-07-10T12:41:57.788Z,60.16
2018-07-10T12:44:29.952Z,59.43
2018-07-10T12:47:02.117Z,61.86
2018-07-10T12:49:34.361Z,59.59
2018-07-10T12:52:06.489Z,57.08
2018-07-10T12:54:38.701Z,54.65
2018-07-10T12:57:11.239Z,54.57
2018-07-10T12:59:43.432Z,54.39
2018-07-10T13:02:15.616Z,60.74
2018-07-10T13:04:48.077Z,60.67
2018-07-10T13:07:20.463Z,59.79
2018-07-10T13:09:52.790Z,61.46
2018-07-10T13:12:24.957Z,60.92
2018-07-10T13:14:57.216Z,62.61
2018-07-10T13:17:29.904Z,65.44
2018-07-10T13:20:03.500Z,67.83
2018-07-10T13:22:35.709Z,75.27
2018-07-10T13:25:07.982Z,79.37
2018-07-10T13:27:40.163Z,79.71
2018-07-10T13:30:12.341Z,80.59
2018-07-10T13:32:44.578Z,78.03
2018-07-10T13:35:16.744Z,80.77
2018-07-10T13:37:48.934Z,83.59
2018-07-10T13:40:21.118Z,85.12
2018-07-10T13:42:57.248Z,82.70
2018-07-10T13:45:30.416Z,88.68
2018-07-10T13:48:02.649Z,88.31
2018-07-10T13:50:34.869Z,82.12
2018-07-10T13:53:07.062Z,85.79
2018-07-10T13:55:39.289Z,85.85
2018-07-10T13:58:16.902Z,83.23
2018-07-10T14:01:05.723Z,79.88
2018-07-10T14:03:38.079Z,77.83
2018-07-10T14:06:10.208Z,76.25
2018-07-10T14:08:42.706Z,75.90
2018-07-10T14:11:14.825Z,77.13
2018-07-10T14:13:47.421Z,76.87
2018-07-10T14:16:19.793Z,77.49
2018-07-10T14:18:55.852Z,79.04
2018-07-10T14:21:28.014Z,72.31
2018-07-10T14:24:00.188Z,70.20
2018-07-10T14:26:32.427Z,70.25
2018-07-10T14:29:04.593Z,66.88
2018-07-10T14:31:36.768Z,67.78
2018-07-10T14:34:08.913Z,68.80
2018-07-10T14:36:41.234Z,69.96
2018-07-10T14:39:13.456Z,72.17
2018-07-10T14:41:46.234Z,66.09
2018-07-10T14:44:18.451Z,65.82
2018-07-10T14:46:50.689Z,63.89
2018-07-10T14:49:23.120Z,63.33
2018-07-10T14:51:56.311Z,61.56
2018-07-10T14:54:28.886Z,61.65
2018-07-10T14:57:01.119Z,61.79
2018-07-10T14:59:33.767Z,59.46
2018-07-10T15:02:05.900Z,56.77
2018-07-10T15:04:38.814Z,56.30
2018-07-10T15:07:11.170Z,59.15
2018-07-10T15:09:43.266Z,58.48
2018-07-10T15:12:15.447Z,56.83
2018-07-10T15:14:48.429Z,55.97
2018-07-10T15:17:26.303Z,54.83
2018-07-10T15:19:58.591Z,54.05
2018-07-10T15:22:30.802Z,54.58
2018-07-10T15:25:03.093Z,54.22
2018-07-10T15:27:35.283Z,48.26
2018-07-10T15:30:07.595Z,48.59
2018-07-10T15:32:39.663Z,52.37
2018-07-10T15:35:11.804Z,49.62
2018-07-10T15:37:43.935Z,56.15
2018-07-10T15:40:16.129Z,55.59
2018-07-10T15:42:48.353Z,59.20
2018-07-10T15:45:20.433Z,60.16
2018-07-10T15:47:53.693Z,62.71
2018-07-10T15:50:25.863Z,64.80
2018-07-10T15:52:58.029Z,65.75
2018-07-10T15:55:30.259Z,64.33
2018-07-10T15:58:02.468Z,67.22
2018-07-10T16:00:34.750Z,66.57
2018-07-10T16:03:06.869Z,64.41
2018-07-10T16:05:39.063Z,67.02
2018-07-10T16:08:16.730Z,65.66
2018-07-10T16:10:55.853Z,67.35
2018-07-10T16:13:30.024Z,68.35
2018-07-10T16:16:02.182Z,68.26
2018-07-10T16:18:34.717Z,68.97
2018-07-10T16:21:06.838Z,70.34
2018-07-10T16:23:40.044Z,70.09
2018-07-10T16:26:23.233Z,69.01
2018-07-10T16:28:55.347Z,69.75
2018-07-10T16:31:27.572Z,68.58
2018-07-10T16:33:59.639Z,66.09
2018-07-10T16:36:31.739Z,64.87
2018-07-10T16:39:04.187Z,64.67
2018-07-10T16:41:42.077Z,61.95
2018-07-10T16:44:14.280Z,62.82
2018-07-10T16:46:53.542Z,61.74
2018-07-10T16:49:28.721Z,59.85
2018-07-10T16:52:17.999Z,61.48
2018-07-10T16:54:50.164Z,59.65
2018-07-10T16:57:22.335Z,58.88
2018-07-10T16:59:55.015Z,58.38
2018-07-10T17:02:28.619Z,60.39
2018-07-10T17:05:00.854Z,58.68
2018-07-10T17:07:33.106Z,58.98
2018-07-10T17:10:05.398Z,60.87
2018-07-10T17:12:37.474Z,60.14
2018-07-10T17:15:09.708Z,59.62
2018-07-10T17:17:41.841Z,59.53
2018-07-10T17:20:15.311Z,61.11
2018-07-10T17:22:47.558Z,62.68
2018-07-10T17:25:19.787Z,62.30
2018-07-10T17:27:52.153Z,62.23
2018-07-10T17:30:24.394Z,62.24
2018-07-10T17:32:56.657Z,63.81
2018-07-10T17:35:28.852Z,64.41
2018-07-10T17:38:01.022Z,63.50
2018-07-10T17:40:33.231Z,63.14
2018-07-10T17:43:06.461Z,61.82
2018-07-10T17:45:38.645Z,59.90
2018-07-10T17:48:10.896Z,58.33
2018-07-10T17:50:43.131Z,59.06
2018-07-10T17:53:15.354Z,61.11
2018-07-10T17:55:47.525Z,60.73
2018-07-10T17:58:20.873Z,60.77
2018-07-10T18:00:53.020Z,61.47
2018-07-10T18:03:25.292Z,61.23
2018-07-10T18:05:57.455Z,62.05
2018-07-10T18:08:29.665Z,60.09
2018-07-10T18:11:01.834Z,57.85
2018-07-10T18:13:34.074Z,57.62
2018-07-10T18:16:06.249Z,56.44
2018-07-10T18:18:38.776Z,57.59
2018-07-10T18:21:11.015Z,58.40
2018-07-10T18:23:43.211Z,57.79
2018-07-10T18:26:15.419Z,58.76
2018-07-10T18:28:47.565Z,57.48
2018-07-10T18:31:19.802Z,56.91
2018-07-10T18:33:52.233Z,58.41
2018-07-10T18:36:24.405Z,59.01
2018-07-10T18:38:56.629Z,58.35
2018-07-10T18:41:28.917Z,58.87
2018-07-10T18:44:01.618Z,58.90
2018-07-10T18:46:33.849Z,60.97
2018-07-10T18:49:06.067Z,60.60
2018-07-10T18:51:38.315Z,61.09
2018-07-10T18:54:10.728Z,62.86
2018-07-10T18:56:43.067Z,63.47
2018-07-10T18:59:18.464Z,63.67
2018-07-10T19:01:59.077Z,64.27
2018-07-10T19:04:45.995Z,65.24
2018-07-10T19:07:18.226Z,67.38
2018-07-10T19:09:50.713Z,68.62
2018-07-10T19:12:23.431Z,68.06
2018-07-10T19:14:55.579Z,68.82
2018-07-10T19:17:30.664Z,69.36
2018-07-10T19:20:09.585Z,69.18
2018-07-10T19:22:56.693Z,71.01
2018-07-10T19:25:29.290Z,71.15
2018-07-10T19:28:02.212Z,72.23
2018-07-10T19:30:47.422Z,73.06
2018-07-10T19:33:19.534Z,74.36
2018-07-10T19:35:51.880Z,73.29
2018-07-10T19:38:24.039Z,73.71
2018-07-10T19:40:56.198Z,74.12
2018-07-10T19:43:28.366Z,74.34
2018-07-10T19:46:00.535Z,75.63
2018-07-10T19:48:33.494Z,76.46
2018-07-10T19:51:08.971Z,76.52
2018-07-10T19:53:42.335Z,76.50
2018-07-10T19:56:14.474Z,76.75
2018-07-10T19:58:46.615Z,76.88
2018-07-10T20:01:28.779Z,77.05
2018-07-10T20:04:06.887Z,76.70
2018-07-10T20:06:51.498Z,78.12
2018-07-10T20:09:25.305Z,78.87
2018-07-10T20:12:06.153Z,80.50
2018-07-10T20:14:48.447Z,82.63
2018-07-10T20:17:21.717Z,84.23
2018-07-10T20:19:59.785Z,84.32
2018-07-10T20:22:41.449Z,84.12
2018-07-10T20:25:33.012Z,84.00
2018-07-10T20:28:12.195Z,84.37
2018-07-10T20:30:54.632Z,85.04
2018-07-10T20:33:37.380Z,86.12
2018-07-10T20:36:09.953Z,85.73
2018-07-10T20:38:42.167Z,86.44
2018-07-10T20:41:14.353Z,87.31
2018-07-10T20:43:50.515Z,88.44
2018-07-10T20:46:24.162Z,89.06
2018-07-10T20:49:04.459Z,89.75
2018-07-10T20:52:05.105Z,91.07
2018-07-10T20:54:43.193Z,91.46
2018-07-10T20:57:35.840Z,92.52
2018-07-10T21:00:11.342Z,92.66
2018-07-10T21:03:50.237Z,93.13
2018-07-10T21:06:31.313Z,93.52
2018-07-10T21:09:11.032Z,92.88
2018-07-10T21:11:54.477Z,92.96
2018-07-10T21:15:04.607Z,94.20
2018-07-10T21:17:44.964Z,94.87
2018-07-10T21:20:29.551Z,96.34
2018-07-10T21:23:17.444Z,96.97
2018-07-10T21:25:57.179Z,96.66
2018-07-10T21:28:44.220Z,97.69
2018-07-10T21:31:21.220Z,98.73
2018-07-10T21:34:00.896Z,98.44
2018-07-10T21:37:43.164Z,98.21
2018-07-10T21:40:31.197Z,99.18
2018-07-10T21:43:19.702Z,98.91
2018-07-10T21:46:57.451Z,99.06
2018-07-10T21:49:42.031Z,99.92
2018-07-10T21:52:14.205Z,100.00
2018-07-10T21:54:46.319Z,100.00
2018-07-10T21:57:23.611Z,100.00
2018-07-10T21:59:57.008Z,100.00
2018-07-10T22:02:29.426Z,100.00
2018-07-10T22:05:01.649Z,100.00
2018-07-10T22:07:33.934Z,100.00
2018-07-10T22:10:07.435Z,100.00
2018-07-10T22:12:43.088Z,100.00
2018-07-10T22:15:15.346Z,100.00
2018-07-10T22:17:47.556Z,100.00
2018-07-10T22:20:20.247Z,100.00
2018-07-10T22:22:52.423Z,100.00
2018-07-10T22:25:24.565Z,100.00
2018-07-10T22:27:56.751Z,100.00
2018-07-10T22:30:34.624Z,100.00
2018-07-10T22:33:06.889Z,100.00
2018-07-10T22:35:39.131Z,100.00
2018-07-10T22:38:11.313Z,100.00
2018-07-10T22:40:45.434Z,100.00
2018-07-10T22:43:17.629Z,100.00
2018-07-10T22:45:49.759Z,100.00
2018-07-10T22:48:21.967Z,100.00
2018-07-10T22:50:54.137Z,100.00
2018-07-10T22:53:26.347Z,100.00
2018-07-10T22:55:58.538Z,100.00
2018-07-10T22:58:30.731Z,100.00
2018-07-10T23:01:02.902Z,100.00
2018-07-10T23:03:35.157Z,100.00
2018-07-10T23:06:07.293Z,100.00
2018-07-10T23:08:39.490Z,100.00
2018-07-10T23:11:12.788Z,100.00
2018-07-10T23:13:46.419Z,100.00
2018-07-10T23:16:18.623Z,100.00
2018-07-10T23:18:51.316Z,100.00
2018-07-10T23:21:23.492Z,100.00
2018-07-10T23:23:55.735Z,100.00
2018-07-10T23:26:27.960Z,100.00
2018-07-10T23:29:00.193Z,100.00
2018-07-10T23:31:32.996Z,100.00
2018-07-10T23:34:17.044Z,100.00
2018-07-10T23:36:54.678Z,100.00
2018-07-10T23:39:32.232Z,100.00
2018-07-10T23:42:09.727Z,100.00
2018-07-10T23:44:45.477Z,100.00
2018-07-10T23:47:26.836Z,100.00
2018-07-10T23:50:07.148Z,100.00
2018-07-10T23:52:54.614Z,100.00
2018-07-10T23:55:26.806Z,100.00
2018-07-10T23:57:58.992Z,100.00
